Time;durP1;ratioP1;P1;durP2;ratioP2;P2;SDS_P1;SDS_P2;PMS_P1;PMS_P2;Temp;Humidity;BMP_temperature;BMP_pressure;BME280_temperature;BME280_humidity;BME280_pressure;Samples;Min_cycle;Max_cycle;Signal;HPM_P1;HPM_P2
2021/07/19 00:02:20;;;;;;;5.67;4.00;;;19.40;99.90;;;;;;5094161;28;20638;-70
2021/07/19 00:04:46;;;;;;;4.60;3.70;;;19.40;99.90;;;;;;5095609;28;20171;-70
2021/07/19 00:07:12;;;;;;;5.40;3.10;;;19.30;99.90;;;;;;5095281;28;20225;-71
2021/07/19 00:09:44;;;;;;;4.80;3.60;;;19.30;99.90;;;;;;5095207;28;20796;-70
2021/07/19 00:12:10;;;;;;;4.50;3.60;;;19.20;99.90;;;;;;5095316;28;20403;-70
2021/07/19 00:14:35;;;;;;;6.33;4.70;;;19.20;99.90;;;;;;5095165;28;20404;-70
2021/07/19 00:17:01;;;;;;;7.03;3.80;;;19.20;99.90;;;;;;5095115;28;20408;-70
2021/07/19 00:19:26;;;;;;;3.87;3.57;;;19.10;99.90;;;;;;5094936;28;20193;-70
2021/07/19 00:21:53;;;;;;;4.67;3.70;;;19.00;99.90;;;;;;5095012;28;20525;-70
2021/07/19 00:24:18;;;;;;;5.87;4.10;;;19.10;99.90;;;;;;5094900;28;20736;-70
2021/07/19 00:26:44;;;;;;;4.73;3.70;;;19.00;99.90;;;;;;5094855;28;20435;-70
2021/07/19 00:29:09;;;;;;;8.23;4.90;;;19.00;99.90;;;;;;5094833;28;20201;-70
2021/07/19 00:31:35;;;;;;;8.43;4.60;;;19.00;99.90;;;;;;5094970;28;20197;-70
2021/07/19 00:34:02;;;;;;;5.97;3.70;;;18.90;99.90;;;;;;5094728;28;20163;-70
2021/07/19 00:36:28;;;;;;;6.23;4.30;;;18.80;99.90;;;;;;5094810;28;20168;-70
2021/07/19 00:38:54;;;;;;;6.63;4.67;;;18.90;99.90;;;;;;5094541;28;20454;-70
2021/07/19 00:41:20;;;;;;;6.00;4.67;;;18.80;99.90;;;;;;5094977;28;20432;-70
2021/07/19 00:43:46;;;;;;;7.03;4.47;;;18.70;99.90;;;;;;5094525;28;20887;-70
2021/07/19 00:46:12;;;;;;;5.00;4.50;;;18.70;99.90;;;;;;5094453;28;20414;-70
2021/07/19 00:48:37;;;;;;;7.43;4.77;;;18.60;99.90;;;;;;5094292;28;20166;-70
2021/07/19 00:51:04;;;;;;;8.07;5.17;;;18.60;99.90;;;;;;5093160;28;20204;-70
2021/07/19 00:53:30;;;;;;;7.63;5.50;;;18.60;99.90;;;;;;5094184;28;20162;-70
2021/07/19 00:55:56;;;;;;;8.73;5.10;;;18.60;99.90;;;;;;5094311;28;20399;-71
2021/07/19 00:58:25;;;;;;;8.23;4.97;;;18.50;99.90;;;;;;5094183;28;20166;-70
2021/07/19 01:00:53;;;;;;;10.20;6.20;;;18.50;99.90;;;;;;5094030;28;20419;-72
2021/07/19 01:03:19;;;;;;;8.53;5.27;;;18.40;99.90;;;;;;5092806;28;20435;-71
2021/07/19 01:05:46;;;;;;;5.87;4.67;;;18.40;99.90;;;;;;5092201;28;20408;-71
2021/07/19 01:08:12;;;;;;;7.57;5.73;;;18.30;99.90;;;;;;5093965;28;20437;-69
2021/07/19 01:10:38;;;;;;;7.47;5.93;;;18.30;99.90;;;;;;5094003;28;20460;-70
2021/07/19 01:13:06;;;;;;;5.53;4.87;;;18.30;99.90;;;;;;5094292;28;20413;-71
2021/07/19 01:15:35;;;;;;;11.63;6.20;;;18.20;99.90;;;;;;5094219;28;20403;-71
2021/07/19 01:18:01;;;;;;;6.50;5.20;;;18.10;99.90;;;;;;5094007;28;20399;-70
2021/07/19 01:20:32;;;;;;;7.20;5.50;;;18.00;99.90;;;;;;5094074;28;20430;-70
2021/07/19 01:23:27;;;;;;;6.53;5.00;;;18.00;99.90;;;;;;5094225;28;20400;-71
2021/07/19 01:26:07;;;;;;;7.87;5.47;;;18.00;99.90;;;;;;5094498;28;20775;-70
2021/07/19 01:28:44;;;;;;;7.57;4.70;;;18.00;99.90;;;;;;5093649;28;20406;-71
2021/07/19 01:31:14;;;;;;;5.33;4.83;;;18.00;99.90;;;;;;5093224;28;20696;-71
2021/07/19 01:33:42;;;;;;;7.00;5.70;;;17.90;99.90;;;;;;5094329;28;20406;-71
2021/07/19 01:36:10;;;;;;;8.87;4.80;;;17.80;99.90;;;;;;5093791;28;21006;-71
2021/07/19 01:38:37;;;;;;;9.90;5.73;;;17.80;99.90;;;;;;5093166;28;20796;-71
2021/07/19 01:41:03;;;;;;;8.10;5.77;;;17.70;99.90;;;;;;5095001;28;20405;-70
2021/07/19 01:43:30;;;;;;;7.33;5.60;;;17.70;99.90;;;;;;5093774;28;20395;-71
2021/07/19 01:45:56;;;;;;;10.37;5.83;;;17.70;99.90;;;;;;5093623;28;20394;-71
2021/07/19 01:48:22;;;;;;;8.10;7.00;;;17.70;99.90;;;;;;5092530;28;20399;-71
2021/07/19 01:50:49;;;;;;;7.27;6.00;;;17.60;99.90;;;;;;5093561;28;20458;-69
2021/07/19 01:53:16;;;;;;;12.33;7.90;;;17.60;99.90;;;;;;5093179;28;20439;-71
2021/07/19 01:55:42;;;;;;;7.80;5.60;;;17.40;99.90;;;;;;5093181;28;20913;-70
2021/07/19 01:58:08;;;;;;;6.00;5.07;;;17.40;99.90;;;;;;5093278;28;20811;-71
2021/07/19 02:00:33;;;;;;;11.43;6.23;;;17.40;99.90;;;;;;5093481;28;20443;-69
2021/07/19 02:02:59;;;;;;;8.37;6.50;;;17.30;99.90;;;;;;5093809;28;20557;-70
2021/07/19 02:05:26;;;;;;;8.47;5.67;;;17.30;99.90;;;;;;5092329;28;20422;-68
2021/07/19 02:07:54;;;;;;;9.30;5.50;;;17.30;99.90;;;;;;5093843;28;20436;-69
2021/07/19 02:10:20;;;;;;;11.50;5.90;;;17.30;99.90;;;;;;5091551;28;20574;-70
2021/07/19 02:12:48;;;;;;;8.73;6.23;;;17.20;99.90;;;;;;5093263;28;20436;-68
2021/07/19 02:15:18;;;;;;;6.80;5.63;;;17.10;99.90;;;;;;5093351;28;20406;-68
2021/07/19 02:17:48;;;;;;;6.87;5.77;;;17.10;99.90;;;;;;5092298;28;20412;-70
2021/07/19 02:20:15;;;;;;;7.73;6.07;;;17.10;99.90;;;;;;5092636;28;20500;-70
2021/07/19 02:22:43;;;;;;;13.07;5.97;;;17.10;99.90;;;;;;5093558;28;20437;-69
2021/07/19 02:25:11;;;;;;;12.93;5.60;;;17.00;99.90;;;;;;5092569;28;20418;-68
2021/07/19 02:27:40;;;;;;;6.10;4.90;;;17.00;99.90;;;;;;5093284;28;20405;-69
2021/07/19 02:30:08;;;;;;;8.90;6.10;;;16.90;99.90;;;;;;5092486;28;20551;-69
2021/07/19 02:32:44;;;;;;;11.40;6.10;;;16.80;99.90;;;;;;5092571;28;20413;-68
2021/07/19 02:35:12;;;;;;;11.37;7.27;;;16.70;99.90;;;;;;5092637;28;20780;-68
2021/07/19 02:37:39;;;;;;;7.17;5.53;;;16.70;99.90;;;;;;5092357;28;20851;-68
2021/07/19 02:40:07;;;;;;;7.83;4.90;;;16.60;99.90;;;;;;5092586;28;20432;-68
2021/07/19 02:42:42;;;;;;;7.47;4.77;;;16.60;99.90;;;;;;5092429;28;20423;-68
2021/07/19 02:45:11;;;;;;;7.90;5.30;;;16.50;99.90;;;;;;5091993;28;20512;-68
2021/07/19 02:47:37;;;;;;;15.97;6.03;;;16.40;99.90;;;;;;5091744;28;20503;-69
2021/07/19 02:50:06;;;;;;;10.17;5.80;;;16.40;99.90;;;;;;5093018;28;20465;-68
2021/07/19 02:52:34;;;;;;;6.93;5.03;;;16.30;99.90;;;;;;5092483;28;20442;-71
2021/07/19 02:55:01;;;;;;;8.40;5.30;;;16.30;99.90;;;;;;5093339;28;20413;-71
2021/07/19 02:57:27;;;;;;;12.10;4.93;;;16.20;99.90;;;;;;5092901;28;20555;-70
2021/07/19 02:59:52;;;;;;;14.83;5.73;;;16.20;99.90;;;;;;5092380;28;20869;-71
2021/07/19 03:02:22;;;;;;;5.50;4.30;;;16.10;99.90;;;;;;5092750;28;20210;-71
2021/07/19 03:04:53;;;;;;;8.47;4.73;;;16.10;99.90;;;;;;5092932;28;20179;-71
2021/07/19 03:07:21;;;;;;;6.20;4.87;;;16.00;99.90;;;;;;5092588;28;20408;-71
2021/07/19 03:09:51;;;;;;;7.40;4.83;;;16.00;99.90;;;;;;5092361;28;20550;-71
2021/07/19 03:12:19;;;;;;;10.67;6.50;;;15.90;99.90;;;;;;5091959;28;20441;-70
2021/07/19 03:14:49;;;;;;;9.70;6.73;;;16.00;99.90;;;;;;5091875;28;20404;-70
2021/07/19 03:17:17;;;;;;;9.63;5.17;;;16.00;99.90;;;;;;5091900;28;20836;-71
2021/07/19 03:19:45;;;;;;;9.60;5.47;;;15.90;99.90;;;;;;5092715;28;20437;-71
2021/07/19 03:22:12;;;;;;;15.03;7.23;;;15.80;99.90;;;;;;5092825;28;20412;-71
2021/07/19 03:24:39;;;;;;;7.53;4.90;;;15.70;99.90;;;;;;5092995;28;20827;-70
2021/07/19 03:27:05;;;;;;;7.23;4.57;;;15.60;99.90;;;;;;5092106;28;20506;-71
2021/07/19 03:29:32;;;;;;;8.73;5.50;;;15.60;99.90;;;;;;5097005;28;21039;-71
2021/07/19 03:31:58;;;;;;;10.50;4.80;;;15.60;99.90;;;;;;5097486;28;20208;-71
2021/07/19 03:34:25;;;;;;;12.43;5.17;;;15.50;99.90;;;;;;5098618;28;20827;-70
2021/07/19 03:36:54;;;;;;;10.00;5.07;;;15.50;99.90;;;;;;5097430;28;20768;-71
2021/07/19 03:39:21;;;;;;;11.30;4.37;;;15.50;99.90;;;;;;5094528;28;20461;-70
2021/07/19 03:41:51;;;;;;;11.50;6.60;;;15.50;99.90;;;;;;5096795;28;20780;-72
2021/07/19 03:44:18;;;;;;;8.20;4.67;;;15.60;99.90;;;;;;5095870;28;20418;-71
2021/07/19 03:46:44;;;;;;;8.57;4.70;;;15.50;99.90;;;;;;5095558;28;20412;-69
2021/07/19 03:49:18;;;;;;;13.97;4.83;;;15.50;99.90;;;;;;5096480;28;20521;-71
2021/07/19 03:51:48;;;;;;;15.40;5.60;;;15.50;99.90;;;;;;5095509;28;20399;-71
2021/07/19 03:54:14;;;;;;;11.00;4.30;;;15.50;99.90;;;;;;5096130;28;20489;-72
2021/07/19 03:56:40;;;;;;;6.33;4.63;;;15.50;99.90;;;;;;5096633;28;20401;-72
2021/07/19 03:59:07;;;;;;;11.33;5.20;;;15.60;99.90;;;;;;5095727;28;20542;-71
2021/07/19 04:01:37;;;;;;;11.20;4.83;;;15.70;99.90;;;;;;5095608;28;20235;-71
2021/07/19 04:04:09;;;;;;;9.63;5.50;;;15.60;99.90;;;;;;5095395;28;20462;-71
2021/07/19 04:06:37;;;;;;;10.47;4.60;;;15.60;99.90;;;;;;5095685;28;20791;-72
2021/07/19 04:09:03;;;;;;;7.80;5.23;;;15.60;99.90;;;;;;5095243;28;20447;-71
2021/07/19 04:11:29;;;;;;;7.80;4.77;;;15.60;99.90;;;;;;5095331;28;20404;-72
2021/07/19 04:13:55;;;;;;;10.07;5.03;;;15.70;99.90;;;;;;5095675;28;20772;-71
2021/07/19 04:16:22;;;;;;;6.23;4.03;;;15.80;99.90;;;;;;5095888;28;20405;-71
2021/07/19 04:18:51;;;;;;;15.37;4.80;;;15.80;99.90;;;;;;5095327;28;20391;-71
2021/07/19 04:21:17;;;;;;;8.23;3.60;;;15.70;99.90;;;;;;5095236;28;20415;-72
2021/07/19 04:23:43;;;;;;;12.80;4.40;;;15.70;99.90;;;;;;5095155;28;20772;-72
2021/07/19 04:26:13;;;;;;;11.03;4.40;;;15.70;99.90;;;;;;5095193;28;20397;-71
2021/07/19 04:28:40;;;;;;;5.73;3.70;;;15.80;99.90;;;;;;5095088;28;20397;-71
2021/07/19 04:31:06;;;;;;;8.27;3.70;;;15.90;99.90;;;;;;5094983;28;20981;-70
2021/07/19 04:33:32;;;;;;;9.90;4.10;;;16.00;99.90;;;;;;5094537;28;20412;-69
2021/07/19 04:35:58;;;;;;;9.47;3.40;;;15.90;99.90;;;;;;5095191;28;20419;-69
2021/07/19 04:38:24;;;;;;;10.67;3.67;;;16.10;99.90;;;;;;5095045;28;20668;-69
2021/07/19 04:40:55;;;;;;;8.30;4.40;;;16.00;99.90;;;;;;5093964;28;20689;-70
2021/07/19 04:43:22;;;;;;;8.50;3.93;;;15.90;99.90;;;;;;5093572;28;20415;-69
2021/07/19 04:45:48;;;;;;;7.07;4.10;;;15.90;99.90;;;;;;5094814;28;20417;-70
2021/07/19 04:48:15;;;;;;;8.90;4.77;;;15.90;99.90;;;;;;5094514;28;20410;-70
2021/07/19 04:50:41;;;;;;;8.23;4.63;;;15.90;99.90;;;;;;5094765;28;20978;-70
2021/07/19 04:53:09;;;;;;;9.43;4.10;;;15.90;99.90;;;;;;5094541;28;20438;-70
2021/07/19 04:55:36;;;;;;;5.20;4.43;;;16.00;99.90;;;;;;5094698;28;20250;-70
2021/07/19 04:58:04;;;;;;;8.67;4.07;;;16.00;99.90;;;;;;5094495;28;20408;-70
2021/07/19 05:00:31;;;;;;;8.03;4.10;;;16.10;99.90;;;;;;5093233;28;20428;-70
2021/07/19 05:02:59;;;;;;;8.83;4.60;;;16.20;99.90;;;;;;5094321;28;20425;-71
2021/07/19 05:05:25;;;;;;;8.20;4.13;;;16.40;99.90;;;;;;5094624;28;20779;-70
2021/07/19 05:07:53;;;;;;;7.90;4.47;;;16.30;99.90;;;;;;5094560;28;20405;-69
2021/07/19 05:10:20;;;;;;;8.80;3.80;;;16.40;99.90;;;;;;5094353;28;20457;-70
2021/07/19 05:12:49;;;;;;;8.10;4.77;;;16.40;99.90;;;;;;5094266;28;20410;-70
2021/07/19 05:15:15;;;;;;;9.40;4.57;;;16.80;99.90;;;;;;5093956;28;20452;-70
2021/07/19 05:17:41;;;;;;;10.83;4.43;;;16.90;99.90;;;;;;5093943;28;20398;-70
2021/07/19 05:20:14;;;;;;;6.00;3.30;;;17.00;99.90;;;;;;5093877;28;20191;-70
2021/07/19 05:22:47;;;;;;;5.90;4.70;;;17.10;99.90;;;;;;5092659;28;20411;-70
2021/07/19 05:25:15;;;;;;;16.47;4.00;;;17.50;99.90;;;;;;5094164;28;20412;-69
2021/07/19 05:27:58;;;;;;;7.27;3.83;;;17.60;99.90;;;;;;5092905;28;20512;-69
2021/07/19 05:30:25;;;;;;;11.47;5.47;;;18.10;99.90;;;;;;5093861;28;20995;-70
2021/07/19 05:32:50;;;;;;;8.93;4.50;;;18.60;99.90;;;;;;5093919;28;20755;-69
2021/07/19 05:35:19;;;;;;;5.73;3.37;;;19.10;99.90;;;;;;5094188;28;20412;-69
2021/07/19 05:37:46;;;;;;;7.40;4.80;;;19.60;99.90;;;;;;5093817;28;20175;-69
2021/07/19 05:40:12;;;;;;;10.13;4.00;;;19.80;99.90;;;;;;5092405;28;20445;-69
2021/07/19 05:42:39;;;;;;;8.97;3.50;;;20.00;99.90;;;;;;5093775;28;20449;-69
2021/07/19 05:45:05;;;;;;;8.40;3.93;;;19.70;99.90;;;;;;5093352;28;20412;-69
2021/07/19 05:47:32;;;;;;;8.30;4.50;;;19.80;99.90;;;;;;5093190;28;20444;-69
2021/07/19 05:49:58;;;;;;;5.70;3.60;;;20.30;99.90;;;;;;5093412;28;20926;-69
2021/07/19 05:52:23;;;;;;;9.50;4.67;;;19.30;99.90;;;;;;5093270;28;20541;-69
2021/07/19 05:54:49;;;;;;;5.47;3.97;;;19.50;99.90;;;;;;5093183;28;20533;-70
2021/07/19 05:57:14;;;;;;;10.87;5.30;;;19.00;99.90;;;;;;5093248;28;20179;-69
2021/07/19 05:59:40;;;;;;;6.90;4.60;;;19.20;99.90;;;;;;5093248;28;20198;-68
2021/07/19 06:02:06;;;;;;;7.30;4.20;;;18.70;99.90;;;;;;5092959;28;20254;-69
2021/07/19 06:04:31;;;;;;;7.27;4.10;;;18.90;99.90;;;;;;5092166;28;20209;-69
2021/07/19 06:06:57;;;;;;;8.60;5.50;;;19.10;99.90;;;;;;5092010;28;20922;-69
2021/07/19 06:09:22;;;;;;;7.30;4.87;;;19.30;99.90;;;;;;5091494;28;20196;-70
2021/07/19 06:11:48;;;;;;;11.00;5.80;;;18.70;99.90;;;;;;5092778;28;20175;-69
2021/07/19 06:14:13;;;;;;;9.93;4.80;;;18.90;99.90;;;;;;5092989;28;20179;-69
2021/07/19 06:16:39;;;;;;;9.20;4.10;;;19.30;99.90;;;;;;5092886;28;20183;-70
2021/07/19 06:19:05;;;;;;;8.07;5.33;;;19.40;99.90;;;;;;5092927;28;20192;-69
2021/07/19 06:21:30;;;;;;;8.70;4.67;;;19.10;99.90;;;;;;5093224;28;20440;-70
2021/07/19 06:23:56;;;;;;;7.17;4.27;;;18.80;99.90;;;;;;5093648;28;20176;-70
2021/07/19 06:26:22;;;;;;;5.67;4.00;;;20.10;99.90;;;;;;5093460;28;20166;-68
2021/07/19 06:28:48;;;;;;;9.60;3.90;;;20.20;99.90;;;;;;5094830;28;20551;-68
2021/07/19 06:31:13;;;;;;;6.40;4.57;;;21.00;99.90;;;;;;5094704;28;20453;-68
2021/07/19 06:33:39;;;;;;;6.20;4.60;;;19.90;99.90;;;;;;5093626;28;20349;-68
2021/07/19 06:36:05;;;;;;;6.73;4.50;;;20.30;99.90;;;;;;5076621;28;20173;-68
2021/07/19 06:38:30;;;;;;;5.43;4.20;;;21.10;99.90;;;;;;5092201;28;20256;-68
2021/07/19 06:40:56;;;;;;;6.23;4.00;;;21.60;99.90;;;;;;5091283;28;20212;-68
2021/07/19 06:43:21;;;;;;;9.27;5.53;;;21.40;99.90;;;;;;5092409;28;20248;-69
2021/07/19 06:45:47;;;;;;;5.87;4.10;;;22.50;99.90;;;;;;5092509;28;20173;-69
2021/07/19 06:48:14;;;;;;;7.07;4.97;;;22.50;99.90;;;;;;5093250;28;20180;-68
2021/07/19 06:50:39;;;;;;;7.63;4.93;;;20.90;99.90;;;;;;5093162;28;20506;-69
2021/07/19 06:53:05;;;;;;;9.03;4.57;;;21.70;99.90;;;;;;5092155;28;20445;-69
2021/07/19 06:55:30;;;;;;;6.67;4.63;;;22.00;99.90;;;;;;5092334;28;20177;-69
2021/07/19 06:57:56;;;;;;;7.50;4.80;;;22.40;99.90;;;;;;5092645;28;20240;-69
2021/07/19 07:00:21;;;;;;;4.90;4.43;;;21.30;99.90;;;;;;5093338;28;20717;-69
2021/07/19 07:02:47;;;;;;;7.00;4.90;;;21.90;99.90;;;;;;5092912;28;20193;-69
2021/07/19 07:05:12;;;;;;;8.20;4.90;;;20.60;99.90;;;;;;5092163;28;20188;-68
2021/07/19 07:07:38;;;;;;;9.80;5.27;;;19.90;99.90;;;;;;5090890;28;20176;-69
2021/07/19 07:10:05;;;;;;;7.77;5.80;;;21.10;99.90;;;;;;5091861;28;20212;-68
2021/07/19 07:12:31;;;;;;;10.70;6.13;;;20.60;99.90;;;;;;5092077;28;20219;-68
2021/07/19 07:14:56;;;;;;;8.40;5.00;;;21.00;99.90;;;;;;5092186;28;20410;-69
2021/07/19 07:17:22;;;;;;;8.10;4.90;;;21.70;99.90;;;;;;5093631;28;20536;-70
2021/07/19 07:19:47;;;;;;;5.53;4.37;;;21.90;99.90;;;;;;5092496;28;20194;-68
2021/07/19 07:22:13;;;;;;;10.30;5.50;;;22.50;99.90;;;;;;5090710;28;20181;-69
2021/07/19 07:24:40;;;;;;;6.40;4.27;;;22.30;99.90;;;;;;5093252;28;20591;-69
2021/07/19 07:27:10;;;;;;;7.97;5.70;;;21.90;99.90;;;;;;5091917;28;20249;-69
2021/07/19 07:29:36;;;;;;;6.33;4.77;;;21.70;99.90;;;;;;5092646;28;20454;-68
2021/07/19 07:32:01;;;;;;;8.20;4.87;;;21.80;99.90;;;;;;5092083;28;20403;-68
2021/07/19 07:34:27;;;;;;;7.60;4.60;;;22.30;99.90;;;;;;5091741;28;20208;-68
2021/07/19 07:36:52;;;;;;;7.77;5.67;;;23.60;99.90;;;;;;5093050;28;20334;-68
2021/07/19 07:39:18;;;;;;;8.33;5.27;;;22.10;99.90;;;;;;5094186;28;20519;-68
2021/07/19 07:41:43;;;;;;;7.67;4.73;;;21.70;99.90;;;;;;5092602;28;20164;-68
2021/07/19 07:44:10;;;;;;;7.37;5.63;;;23.00;99.90;;;;;;5092045;28;20235;-71
2021/07/19 07:46:36;;;;;;;6.43;5.40;;;23.60;99.90;;;;;;5091658;28;20156;-68
2021/07/19 07:49:01;;;;;;;9.80;5.23;;;22.80;99.90;;;;;;5091616;28;20430;-68
2021/07/19 07:51:27;;;;;;;7.50;5.70;;;21.00;99.90;;;;;;5091375;28;20163;-68
2021/07/19 07:53:52;;;;;;;6.03;4.73;;;22.10;99.90;;;;;;5093131;28;20167;-68
2021/07/19 07:56:18;;;;;;;6.53;5.00;;;21.70;99.90;;;;;;5092094;28;20219;-67
2021/07/19 07:58:43;;;;;;;7.77;5.03;;;21.80;99.90;;;;;;5095093;28;20653;-69
2021/07/19 08:01:09;;;;;;;8.10;5.00;;;22.00;99.90;;;;;;5094225;28;20174;-67
2021/07/19 08:03:34;;;;;;;10.00;5.17;;;22.20;99.90;;;;;;5092564;28;20188;-68
2021/07/19 08:06:00;;;;;;;6.43;4.73;;;23.90;99.90;;;;;;5091656;28;20637;-69
2021/07/19 08:08:25;;;;;;;8.80;4.90;;;23.20;99.90;;;;;;5092500;28;20196;-68
2021/07/19 08:10:51;;;;;;;6.73;4.50;;;23.70;99.90;;;;;;5091581;28;20226;-68
2021/07/19 08:13:16;;;;;;;6.80;5.00;;;23.70;99.90;;;;;;5091540;28;20172;-68
2021/07/19 08:15:47;;;;;;;4.90;4.40;;;24.10;99.90;;;;;;5093927;28;20170;-70
2021/07/19 08:18:12;;;;;;;5.80;5.30;;;22.60;99.90;;;;;;5095945;28;20222;-67
2021/07/19 08:20:38;;;;;;;6.17;5.57;;;22.90;99.90;;;;;;5095593;28;20422;-67
2021/07/19 08:23:04;;;;;;;7.67;5.37;;;24.50;99.90;;;;;;5096274;28;20182;-67
2021/07/19 08:25:30;;;;;;;4.90;4.00;;;22.90;99.90;;;;;;5095600;28;20171;-68
2021/07/19 08:27:55;;;;;;;6.97;5.40;;;22.80;99.90;;;;;;5094413;28;20473;-68
2021/07/19 08:30:21;;;;;;;5.70;5.10;;;23.10;99.90;;;;;;5095127;28;20197;-68
2021/07/19 08:32:47;;;;;;;7.20;4.97;;;23.60;99.90;;;;;;5095205;28;20607;-68
2021/07/19 08:35:13;;;;;;;6.20;4.83;;;24.00;99.90;;;;;;5093926;28;20216;-70
2021/07/19 08:37:41;;;;;;;7.20;4.57;;;23.40;99.60;;;;;;5094124;28;20165;-67
2021/07/19 08:40:09;;;;;;;7.23;4.80;;;22.80;99.90;;;;;;5093979;28;20496;-68
2021/07/19 08:42:36;;;;;;;6.83;5.30;;;23.50;99.70;;;;;;5095262;28;20410;-70
2021/07/19 08:45:05;;;;;;;6.33;5.70;;;22.00;99.90;;;;;;5095431;28;20415;-68
2021/07/19 08:47:30;;;;;;;6.40;5.60;;;21.90;99.90;;;;;;5095245;28;21094;-68
2021/07/19 08:49:56;;;;;;;6.43;5.20;;;21.70;99.90;;;;;;5095074;28;20451;-68
2021/07/19 08:52:22;;;;;;;8.83;6.00;;;22.00;99.90;;;;;;5095385;28;20166;-68
2021/07/19 08:54:48;;;;;;;7.83;6.00;;;21.20;99.90;;;;;;5095193;28;20320;-71
2021/07/19 08:57:15;;;;;;;7.50;5.23;;;21.80;99.90;;;;;;5095187;28;20813;-71
2021/07/19 08:59:41;;;;;;;8.97;5.93;;;21.20;99.90;;;;;;5093134;28;20430;-71
2021/07/19 09:02:10;;;;;;;9.83;6.30;;;21.10;99.90;;;;;;5095137;28;20433;-70
2021/07/19 09:04:38;;;;;;;5.83;4.80;;;21.50;99.90;;;;;;5094890;28;20738;-72
2021/07/19 09:07:04;;;;;;;6.40;5.30;;;21.70;99.90;;;;;;5095083;28;20402;-70
2021/07/19 09:09:34;;;;;;;6.90;5.43;;;22.00;99.90;;;;;;5094597;28;20503;-69
2021/07/19 09:12:02;;;;;;;7.67;5.30;;;22.20;99.90;;;;;;5094758;28;20590;-70
2021/07/19 09:14:28;;;;;;;6.63;4.67;;;21.30;99.90;;;;;;5093970;28;20906;-69
2021/07/19 09:16:54;;;;;;;8.73;5.30;;;20.80;99.90;;;;;;5093904;28;20406;-69
2021/07/19 09:19:24;;;;;;;7.87;4.90;;;20.60;99.90;;;;;;5094107;28;20433;-71
2021/07/19 09:21:55;;;;;;;6.30;5.07;;;20.30;99.90;;;;;;5093953;28;20507;-74
2021/07/19 09:24:22;;;;;;;6.03;4.77;;;20.00;99.90;;;;;;5094019;28;20397;-71
2021/07/19 09:26:50;;;;;;;8.03;4.47;;;20.30;99.90;;;;;;5093428;28;20426;-69
2021/07/19 09:29:19;;;;;;;9.37;5.30;;;20.00;99.90;;;;;;5093652;28;20508;-71
2021/07/19 09:31:53;;;;;;;5.47;4.30;;;20.50;99.90;;;;;;5093582;28;20503;-71
2021/07/19 09:34:24;;;;;;;5.13;4.63;;;20.80;99.90;;;;;;5093973;28;20434;-71
2021/07/19 09:36:56;;;;;;;10.40;4.60;;;20.20;99.90;;;;;;5093829;28;20427;-68
2021/07/19 09:39:22;;;;;;;6.83;4.33;;;20.40;99.90;;;;;;5093606;28;20422;-68
2021/07/19 09:41:48;;;;;;;5.77;4.93;;;19.70;99.90;;;;;;5093529;28;20483;-69
2021/07/19 09:44:14;;;;;;;5.63;4.97;;;19.80;99.90;;;;;;5093599;28;20184;-69
2021/07/19 09:46:40;;;;;;;6.70;4.70;;;19.70;99.90;;;;;;5093562;28;20421;-68
2021/07/19 09:49:06;;;;;;;9.57;4.90;;;19.80;99.90;;;;;;5093476;28;20183;-69
2021/07/19 09:51:33;;;;;;;7.57;4.33;;;20.20;99.90;;;;;;5092432;28;20422;-69
2021/07/19 09:54:13;;;;;;;5.97;4.73;;;20.30;99.90;;;;;;5093926;28;20180;-68
2021/07/19 09:56:40;;;;;;;9.77;5.10;;;20.90;99.90;;;;;;5093263;28;20748;-68
2021/07/19 09:59:11;;;;;;;5.57;4.40;;;20.90;99.90;;;;;;5093614;28;20929;-68
2021/07/19 10:01:46;;;;;;;4.50;4.10;;;20.40;99.90;;;;;;5092024;28;20558;-68
2021/07/19 10:04:20;;;;;;;7.40;4.77;;;20.50;99.90;;;;;;5093305;28;20914;-68
2021/07/19 10:06:50;;;;;;;7.37;5.90;;;20.70;99.90;;;;;;5093352;28;21015;-68
2021/07/19 10:09:17;;;;;;;5.97;4.60;;;20.20;99.90;;;;;;5092923;28;20512;-68
2021/07/19 10:11:47;;;;;;;8.93;5.60;;;19.80;99.90;;;;;;5093058;28;20403;-68
2021/07/19 10:14:22;;;;;;;9.00;5.30;;;19.80;99.90;;;;;;5093344;28;20401;-68
2021/07/19 10:16:48;;;;;;;5.80;4.80;;;19.70;99.90;;;;;;5092918;28;20410;-70
2021/07/19 10:19:14;;;;;;;6.90;4.50;;;19.80;99.90;;;;;;5093082;28;20441;-68
2021/07/19 10:21:40;;;;;;;6.23;3.93;;;19.80;99.90;;;;;;5092877;28;20473;-69
2021/07/19 10:24:08;;;;;;;5.53;4.30;;;19.70;99.90;;;;;;5092713;28;20411;-70
2021/07/19 10:26:35;;;;;;;5.70;4.80;;;19.80;99.90;;;;;;5092881;28;20260;-68
2021/07/19 10:29:00;;;;;;;7.17;4.73;;;19.30;99.90;;;;;;5092529;28;20463;-68
2021/07/19 10:31:28;;;;;;;7.50;5.17;;;19.80;99.90;;;;;;5091368;28;20466;-69
2021/07/19 10:33:56;;;;;;;4.67;4.07;;;19.60;99.90;;;;;;5093011;28;20170;-68
2021/07/19 10:36:36;;;;;;;7.63;5.23;;;19.90;99.90;;;;;;5091307;28;20457;-68
2021/07/19 10:39:09;;;;;;;6.90;4.40;;;20.00;99.90;;;;;;5092052;28;20990;-69
2021/07/19 10:41:36;;;;;;;9.33;5.67;;;19.80;99.90;;;;;;5093037;28;20421;-69
2021/07/19 10:44:08;;;;;;;7.13;4.83;;;20.00;99.90;;;;;;5092700;28;20414;-67
2021/07/19 10:46:34;;;;;;;7.37;5.00;;;20.10;99.90;;;;;;5092459;28;20404;-68
2021/07/19 10:49:08;;;;;;;6.03;4.20;;;20.30;99.90;;;;;;5092385;28;20468;-68
2021/07/19 10:51:44;;;;;;;8.10;4.30;;;20.70;99.90;;;;;;5092300;28;20410;-68
2021/07/19 10:54:15;;;;;;;5.43;4.03;;;20.70;99.90;;;;;;5092535;28;20911;-68
2021/07/19 10:56:40;;;;;;;5.73;4.97;;;20.60;99.90;;;;;;5092355;28;20393;-68
2021/07/19 10:59:07;;;;;;;5.93;4.43;;;20.60;99.90;;;;;;5092251;28;20817;-68
2021/07/19 11:01:33;;;;;;;3.70;3.30;;;20.80;99.90;;;;;;5092497;28;20174;-68
2021/07/19 11:04:00;;;;;;;6.43;3.73;;;20.80;99.90;;;;;;5092242;28;20431;-67
2021/07/19 11:06:31;;;;;;;5.40;4.00;;;20.60;99.90;;;;;;5092303;28;20423;-69
2021/07/19 11:08:57;;;;;;;6.73;3.83;;;19.90;99.90;;;;;;5090669;28;20424;-69
2021/07/19 11:11:31;;;;;;;6.40;4.13;;;20.00;99.90;;;;;;5091964;28;20841;-68
2021/07/19 11:13:59;;;;;;;7.20;3.60;;;20.50;99.90;;;;;;5092179;28;20176;-68
2021/07/19 11:16:25;;;;;;;6.33;4.43;;;20.50;99.90;;;;;;5092396;28;20480;-67
2021/07/19 11:19:02;;;;;;;3.70;3.10;;;19.90;99.90;;;;;;5090636;28;20877;-68
2021/07/19 11:21:28;;;;;;;3.73;3.10;;;20.20;99.90;;;;;;5091942;28;20911;-69
2021/07/19 11:23:53;;;;;;;4.60;3.10;;;20.20;99.90;;;;;;5091902;28;20505;-70
2021/07/19 11:26:24;;;;;;;3.20;2.80;;;20.00;99.90;;;;;;5092106;28;20434;-68
2021/07/19 11:28:50;;;;;;;3.70;2.73;;;20.50;99.90;;;;;;5091965;28;20185;-68
2021/07/19 11:31:26;;;;;;;3.53;3.20;;;20.80;99.90;;;;;;5092141;28;20457;-68
2021/07/19 11:34:03;;;;;;;4.30;2.40;;;20.80;99.90;;;;;;5091820;28;20766;-69
2021/07/19 11:36:30;;;;;;;3.60;2.80;;;21.20;99.90;;;;;;5092080;28;20493;-68
2021/07/19 11:39:00;;;;;;;3.90;3.13;;;21.20;99.90;;;;;;5092010;28;20424;-69
2021/07/19 11:41:32;;;;;;;4.13;3.20;;;20.80;99.90;;;;;;5092662;28;20487;-68
2021/07/19 11:44:01;;;;;;;10.93;3.83;;;21.40;99.90;;;;;;5092648;28;20406;-69
2021/07/19 11:46:37;;;;;;;3.87;2.60;;;21.60;99.90;;;;;;5091430;28;20417;-68
2021/07/19 11:49:12;;;;;;;5.57;2.90;;;21.50;99.90;;;;;;5094015;28;20452;-69
2021/07/19 11:51:39;;;;;;;7.20;2.73;;;21.60;99.90;;;;;;5096410;28;20416;-69
2021/07/19 11:54:08;;;;;;;3.57;2.80;;;21.80;99.90;;;;;;5095771;28;20442;-69
2021/07/19 11:56:34;;;;;;;6.60;3.40;;;21.80;99.90;;;;;;5094381;28;20421;-68
2021/07/19 11:59:02;;;;;;;5.67;3.30;;;21.70;99.90;;;;;;5096102;28;20474;-69
2021/07/19 12:01:34;;;;;;;5.93;3.10;;;21.90;99.90;;;;;;5095970;28;20661;-69
2021/07/19 12:04:04;;;;;;;6.27;3.20;;;22.40;99.90;;;;;;5096429;28;20432;-69
2021/07/19 12:06:30;;;;;;;5.07;3.30;;;22.20;99.90;;;;;;5095762;28;20949;-69
2021/07/19 12:09:07;;;;;;;6.10;3.60;;;22.40;99.90;;;;;;5095139;28;20417;-69
2021/07/19 12:11:34;;;;;;;4.20;3.50;;;22.50;99.90;;;;;;5095612;28;20453;-70
2021/07/19 12:14:03;;;;;;;4.80;3.93;;;22.30;99.90;;;;;;5095924;28;20405;-69
2021/07/19 12:16:34;;;;;;;5.30;3.50;;;22.00;99.90;;;;;;5096418;28;20395;-69
2021/07/19 12:18:59;;;;;;;4.33;3.40;;;21.10;99.90;;;;;;5095333;28;20765;-69
2021/07/19 12:21:31;;;;;;;5.33;4.17;;;21.30;99.90;;;;;;5095143;28;20408;-70
2021/07/19 12:23:59;;;;;;;4.73;3.30;;;21.80;99.90;;;;;;5095148;28;20517;-69
2021/07/19 12:26:30;;;;;;;4.37;3.53;;;21.70;99.90;;;;;;5094921;28;20406;-69
2021/07/19 12:29:12;;;;;;;4.13;3.73;;;21.20;99.90;;;;;;5095267;28;20447;-69
2021/07/19 12:31:43;;;;;;;5.50;3.80;;;21.00;99.90;;;;;;5096126;28;20790;-69
2021/07/19 12:34:15;;;;;;;4.43;4.03;;;20.30;99.90;;;;;;5095628;28;20399;-69
2021/07/19 12:36:46;;;;;;;4.13;3.20;;;20.70;99.90;;;;;;5094845;28;20488;-69
2021/07/19 12:39:13;;;;;;;5.97;4.13;;;20.80;99.90;;;;;;5095740;28;20421;-71
2021/07/19 12:41:40;;;;;;;5.00;4.00;;;20.30;99.90;;;;;;5095920;28;20396;-69
2021/07/19 12:44:08;;;;;;;4.63;3.60;;;20.90;99.90;;;;;;5095468;28;21022;-70
2021/07/19 12:46:39;;;;;;;6.57;3.83;;;21.00;99.90;;;;;;5097085;28;20427;-69
2021/07/19 12:49:04;;;;;;;4.43;3.70;;;20.90;99.90;;;;;;5095268;28;20418;-69